sensor_id;sensor_type;location;lat;lon;timestamp;temperature;humidity
17399;DHT22;8817;48.170;8.592;2023-05-18T00:00:44;13.20;44.10
17399;DHT22;8817;48.170;8.592;2023-05-18T00:03:11;13.20;44.10
17399;DHT22;8817;48.170;8.592;2023-05-18T00:05:38;13.10;44.10
17399;DHT22;8817;48.170;8.592;2023-05-18T00:08:08;13.10;44.10
17399;DHT22;8817;48.170;8.592;2023-05-18T00:10:35;13.10;44.10
17399;DHT22;8817;48.170;8.592;2023-05-18T00:13:02;13.00;44.10
17399;DHT22;8817;48.170;8.592;2023-05-18T00:15:29;13.10;44.20
17399;DHT22;8817;48.170;8.592;2023-05-18T00:17:56;13.00;44.10
17399;DHT22;8817;48.170;8.592;2023-05-18T00:20:23;13.00;44.20
17399;DHT22;8817;48.170;8.592;2023-05-18T00:22:51;13.00;44.20
17399;DHT22;8817;48.170;8.592;2023-05-18T00:25:19;12.90;44.20
17399;DHT22;8817;48.170;8.592;2023-05-18T00:27:46;13.00;44.20
17399;DHT22;8817;48.170;8.592;2023-05-18T00:30:16;12.90;44.20
17399;DHT22;8817;48.170;8.592;2023-05-18T00:32:43;12.90;44.20
17399;DHT22;8817;48.170;8.592;2023-05-18T00:35:10;12.90;44.20
17399;DHT22;8817;48.170;8.592;2023-05-18T00:37:37;12.90;44.20
17399;DHT22;8817;48.170;8.592;2023-05-18T00:40:05;12.90;44.20
17399;DHT22;8817;48.170;8.592;2023-05-18T00:42:33;12.90;44.20
17399;DHT22;8817;48.170;8.592;2023-05-18T00:45:00;12.90;44.20
17399;DHT22;8817;48.170;8.592;2023-05-18T00:47:27;12.90;44.20
17399;DHT22;8817;48.170;8.592;2023-05-18T00:49:54;12.90;44.30
17399;DHT22;8817;48.170;8.592;2023-05-18T00:52:21;12.90;44.30
17399;DHT22;8817;48.170;8.592;2023-05-18T00:54:49;12.80;44.20
17399;DHT22;8817;48.170;8.592;2023-05-18T00:57:17;12.90;44.30
17399;DHT22;8817;48.170;8.592;2023-05-18T00:59:46;12.80;44.20
17399;DHT22;8817;48.170;8.592;2023-05-18T01:02:13;12.80;44.20
17399;DHT22;8817;48.170;8.592;2023-05-18T01:04:41;12.80;44.20
17399;DHT22;8817;48.170;8.592;2023-05-18T01:07:08;12.80;44.20
17399;DHT22;8817;48.170;8.592;2023-05-18T01:09:36;12.80;44.20
17399;DHT22;8817;48.170;8.592;2023-05-18T01:12:09;12.80;44.20
17399;DHT22;8817;48.170;8.592;2023-05-18T01:14:43;12.80;44.20
17399;DHT22;8817;48.170;8.592;2023-05-18T01:17:23;12.70;44.20
17399;DHT22;8817;48.170;8.592;2023-05-18T01:20:21;12.70;44.20
17399;DHT22;8817;48.170;8.592;2023-05-18T01:23:09;12.70;44.20
17399;DHT22;8817;48.170;8.592;2023-05-18T01:25:46;12.60;44.20
17399;DHT22;8817;48.170;8.592;2023-05-18T01:28:19;12.60;44.30
17399;DHT22;8817;48.170;8.592;2023-05-18T01:30:47;12.60;44.80
17399;DHT22;8817;48.170;8.592;2023-05-18T01:33:14;12.60;44.30
17399;DHT22;8817;48.170;8.592;2023-05-18T01:35:41;12.60;44.30
17399;DHT22;8817;48.170;8.592;2023-05-18T01:38:13;12.60;44.30
17399;DHT22;8817;48.170;8.592;2023-05-18T01:40:47;12.60;44.40
17399;DHT22;8817;48.170;8.592;2023-05-18T01:43:21;12.60;44.30
17399;DHT22;8817;48.170;8.592;2023-05-18T01:45:55;12.60;44.30
17399;DHT22;8817;48.170;8.592;2023-05-18T01:48:24;12.60;44.30
17399;DHT22;8817;48.170;8.592;2023-05-18T01:50:54;12.60;44.40
17399;DHT22;8817;48.170;8.592;2023-05-18T01:53:26;12.50;44.30
17399;DHT22;8817;48.170;8.592;2023-05-18T01:55:54;12.50;44.30
17399;DHT22;8817;48.170;8.592;2023-05-18T01:58:23;12.50;44.30
17399;DHT22;8817;48.170;8.592;2023-05-18T02:00:51;12.50;44.30
17399;DHT22;8817;48.170;8.592;2023-05-18T02:03:17;12.50;44.30
17399;DHT22;8817;48.170;8.592;2023-05-18T02:05:45;12.50;44.30
17399;DHT22;8817;48.170;8.592;2023-05-18T02:08:11;12.50;44.30
17399;DHT22;8817;48.170;8.592;2023-05-18T02:10:38;12.50;44.30
17399;DHT22;8817;48.170;8.592;2023-05-18T02:13:05;12.50;44.40
17399;DHT22;8817;48.170;8.592;2023-05-18T02:15:33;12.40;44.30
17399;DHT22;8817;48.170;8.592;2023-05-18T02:18:00;12.40;44.40
17399;DHT22;8817;48.170;8.592;2023-05-18T02:20:27;12.50;44.40
17399;DHT22;8817;48.170;8.592;2023-05-18T02:22:57;12.40;44.40
17399;DHT22;8817;48.170;8.592;2023-05-18T02:25:25;12.40;44.40
17399;DHT22;8817;48.170;8.592;2023-05-18T02:27:52;12.40;44.50
17399;DHT22;8817;48.170;8.592;2023-05-18T02:30:19;12.40;44.40
17399;DHT22;8817;48.170;8.592;2023-05-18T02:32:47;12.40;44.50
17399;DHT22;8817;48.170;8.592;2023-05-18T02:35:15;12.40;44.50
17399;DHT22;8817;48.170;8.592;2023-05-18T02:37:42;12.40;44.50
17399;DHT22;8817;48.170;8.592;2023-05-18T02:40:10;12.40;44.50
17399;DHT22;8817;48.170;8.592;2023-05-18T02:42:38;12.40;44.50
17399;DHT22;8817;48.170;8.592;2023-05-18T02:45:06;12.30;44.40
17399;DHT22;8817;48.170;8.592;2023-05-18T02:47:33;12.40;44.50
17399;DHT22;8817;48.170;8.592;2023-05-18T02:50:01;12.30;45.00
17399;DHT22;8817;48.170;8.592;2023-05-18T02:52:28;12.30;44.40
17399;DHT22;8817;48.170;8.592;2023-05-18T02:54:55;12.30;44.40
17399;DHT22;8817;48.170;8.592;2023-05-18T02:57:22;12.30;44.40
17399;DHT22;8817;48.170;8.592;2023-05-18T02:59:49;12.20;44.40
17399;DHT22;8817;48.170;8.592;2023-05-18T03:02:16;12.20;44.40
17399;DHT22;8817;48.170;8.592;2023-05-18T03:04:43;12.20;44.40
17399;DHT22;8817;48.170;8.592;2023-05-18T03:07:13;12.20;44.40
17399;DHT22;8817;48.170;8.592;2023-05-18T03:09:40;12.20;44.50
17399;DHT22;8817;48.170;8.592;2023-05-18T03:12:07;12.20;44.40
17399;DHT22;8817;48.170;8.592;2023-05-18T03:14:34;12.10;44.40
17399;DHT22;8817;48.170;8.592;2023-05-18T03:17:01;12.10;44.40
17399;DHT22;8817;48.170;8.592;2023-05-18T03:19:30;12.10;44.40
17399;DHT22;8817;48.170;8.592;2023-05-18T03:21:59;12.00;44.40
17399;DHT22;8817;48.170;8.592;2023-05-18T03:24:27;12.00;44.70
17399;DHT22;8817;48.170;8.592;2023-05-18T03:26:54;12.00;44.40
17399;DHT22;8817;48.170;8.592;2023-05-18T03:29:21;12.00;44.50
17399;DHT22;8817;48.170;8.592;2023-05-18T03:31:48;11.90;44.40
17399;DHT22;8817;48.170;8.592;2023-05-18T03:34:15;12.00;44.50
17399;DHT22;8817;48.170;8.592;2023-05-18T03:36:42;11.90;44.50
17399;DHT22;8817;48.170;8.592;2023-05-18T03:39:11;11.90;44.50
17399;DHT22;8817;48.170;8.592;2023-05-18T03:41:40;11.90;44.50
17399;DHT22;8817;48.170;8.592;2023-05-18T03:44:07;11.90;44.60
17399;DHT22;8817;48.170;8.592;2023-05-18T03:46:34;11.80;44.50
17399;DHT22;8817;48.170;8.592;2023-05-18T03:49:01;11.80;44.50
17399;DHT22;8817;48.170;8.592;2023-05-18T03:51:29;11.80;44.50
17399;DHT22;8817;48.170;8.592;2023-05-18T03:53:56;11.80;44.60
17399;DHT22;8817;48.170;8.592;2023-05-18T03:56:23;11.80;44.60
17399;DHT22;8817;48.170;8.592;2023-05-18T03:58:51;11.90;44.70
17399;DHT22;8817;48.170;8.592;2023-05-18T04:01:18;11.80;44.60
17399;DHT22;8817;48.170;8.592;2023-05-18T04:03:48;11.80;44.70
17399;DHT22;8817;48.170;8.592;2023-05-18T04:06:15;11.80;44.70
17399;DHT22;8817;48.170;8.592;2023-05-18T04:08:42;11.80;44.70
17399;DHT22;8817;48.170;8.592;2023-05-18T04:11:10;11.80;44.70
17399;DHT22;8817;48.170;8.592;2023-05-18T04:13:37;11.80;44.80
17399;DHT22;8817;48.170;8.592;2023-05-18T04:16:07;11.80;44.70
17399;DHT22;8817;48.170;8.592;2023-05-18T04:18:37;11.80;44.80
17399;DHT22;8817;48.170;8.592;2023-05-18T04:21:05;11.80;44.80
17399;DHT22;8817;48.170;8.592;2023-05-18T04:23:31;11.80;44.80
17399;DHT22;8817;48.170;8.592;2023-05-18T04:26:03;11.80;44.80
17399;DHT22;8817;48.170;8.592;2023-05-18T04:28:30;11.80;44.90
17399;DHT22;8817;48.170;8.592;2023-05-18T04:30:57;11.80;44.90
17399;DHT22;8817;48.170;8.592;2023-05-18T04:33:27;11.80;44.90
17399;DHT22;8817;48.170;8.592;2023-05-18T04:35:54;11.90;45.00
17399;DHT22;8817;48.170;8.592;2023-05-18T04:38:23;11.90;45.00
17399;DHT22;8817;48.170;8.592;2023-05-18T04:40:50;11.90;45.00
17399;DHT22;8817;48.170;8.592;2023-05-18T04:43:18;11.90;45.00
17399;DHT22;8817;48.170;8.592;2023-05-18T04:45:45;12.00;45.10
17399;DHT22;8817;48.170;8.592;2023-05-18T04:48:15;12.00;45.10
17399;DHT22;8817;48.170;8.592;2023-05-18T04:50:45;12.00;45.10
17399;DHT22;8817;48.170;8.592;2023-05-18T04:53:12;12.00;45.70
17399;DHT22;8817;48.170;8.592;2023-05-18T04:55:42;12.10;45.20
17399;DHT22;8817;48.170;8.592;2023-05-18T04:58:11;12.10;45.30
17399;DHT22;8817;48.170;8.592;2023-05-18T05:00:38;12.10;45.20
17399;DHT22;8817;48.170;8.592;2023-05-18T05:03:04;12.20;45.30
17399;DHT22;8817;48.170;8.592;2023-05-18T05:05:32;12.20;45.30
17399;DHT22;8817;48.170;8.592;2023-05-18T05:08:00;12.20;45.40
17399;DHT22;8817;48.170;8.592;2023-05-18T05:10:31;12.30;45.50
17399;DHT22;8817;48.170;8.592;2023-05-18T05:12:58;12.30;45.50
17399;DHT22;8817;48.170;8.592;2023-05-18T05:15:25;12.40;45.60
17399;DHT22;8817;48.170;8.592;2023-05-18T05:17:52;12.50;45.70
17399;DHT22;8817;48.170;8.592;2023-05-18T05:20:19;12.50;45.60
17399;DHT22;8817;48.170;8.592;2023-05-18T05:22:45;12.60;45.70
17399;DHT22;8817;48.170;8.592;2023-05-18T05:25:14;12.60;45.60
17399;DHT22;8817;48.170;8.592;2023-05-18T05:27:41;12.70;45.60
17399;DHT22;8817;48.170;8.592;2023-05-18T05:30:08;12.70;45.70
17399;DHT22;8817;48.170;8.592;2023-05-18T05:32:35;12.70;45.70
17399;DHT22;8817;48.170;8.592;2023-05-18T05:35:02;12.80;45.70
17399;DHT22;8817;48.170;8.592;2023-05-18T05:37:29;12.90;45.80
17399;DHT22;8817;48.170;8.592;2023-05-18T05:39:56;12.90;45.90
17399;DHT22;8817;48.170;8.592;2023-05-18T05:42:25;13.00;45.90
17399;DHT22;8817;48.170;8.592;2023-05-18T05:44:52;13.00;45.90
17399;DHT22;8817;48.170;8.592;2023-05-18T05:47:19;13.20;46.10
17399;DHT22;8817;48.170;8.592;2023-05-18T05:49:46;13.20;46.10
17399;DHT22;8817;48.170;8.592;2023-05-18T05:52:12;13.30;46.10
17399;DHT22;8817;48.170;8.592;2023-05-18T05:54:39;13.40;46.10
17399;DHT22;8817;48.170;8.592;2023-05-18T05:57:06;13.50;46.10
17399;DHT22;8817;48.170;8.592;2023-05-18T05:59:34;13.50;46.10
17399;DHT22;8817;48.170;8.592;2023-05-18T06:02:01;13.60;46.10
17399;DHT22;8817;48.170;8.592;2023-05-18T06:04:28;13.60;46.10
17399;DHT22;8817;48.170;8.592;2023-05-18T06:06:56;13.70;46.00
17399;DHT22;8817;48.170;8.592;2023-05-18T06:09:23;13.70;46.00
17399;DHT22;8817;48.170;8.592;2023-05-18T06:11:50;13.80;46.10
17399;DHT22;8817;48.170;8.592;2023-05-18T06:14:17;13.80;46.10
17399;DHT22;8817;48.170;8.592;2023-05-18T06:16:47;13.80;46.10
17399;DHT22;8817;48.170;8.592;2023-05-18T06:19:14;13.90;46.20
17399;DHT22;8817;48.170;8.592;2023-05-18T06:21:41;14.00;46.20
17399;DHT22;8817;48.170;8.592;2023-05-18T06:24:08;14.00;46.20
17399;DHT22;8817;48.170;8.592;2023-05-18T06:26:36;14.10;46.40
17399;DHT22;8817;48.170;8.592;2023-05-18T06:29:02;14.20;46.40
17399;DHT22;8817;48.170;8.592;2023-05-18T06:31:30;14.20;46.30
17399;DHT22;8817;48.170;8.592;2023-05-18T06:33:58;14.30;46.30
17399;DHT22;8817;48.170;8.592;2023-05-18T06:36:25;14.30;46.30
17399;DHT22;8817;48.170;8.592;2023-05-18T06:38:52;14.40;46.30
17399;DHT22;8817;48.170;8.592;2023-05-18T06:41:19;14.40;46.30
17399;DHT22;8817;48.170;8.592;2023-05-18T06:43:46;14.50;46.30
17399;DHT22;8817;48.170;8.592;2023-05-18T06:46:18;14.60;46.40
17399;DHT22;8817;48.170;8.592;2023-05-18T06:48:46;14.60;46.40
17399;DHT22;8817;48.170;8.592;2023-05-18T06:51:14;14.70;46.40
17399;DHT22;8817;48.170;8.592;2023-05-18T06:53:41;14.70;46.40
17399;DHT22;8817;48.170;8.592;2023-05-18T06:56:08;14.80;46.40
17399;DHT22;8817;48.170;8.592;2023-05-18T06:58:36;14.90;46.40
17399;DHT22;8817;48.170;8.592;2023-05-18T07:01:03;14.90;47.00
17399;DHT22;8817;48.170;8.592;2023-05-18T07:03:30;15.00;46.50
17399;DHT22;8817;48.170;8.592;2023-05-18T07:05:57;15.00;46.50
17399;DHT22;8817;48.170;8.592;2023-05-18T07:08:26;15.10;46.50
17399;DHT22;8817;48.170;8.592;2023-05-18T07:10:53;15.10;46.50
17399;DHT22;8817;48.170;8.592;2023-05-18T07:13:22;15.20;46.50
17399;DHT22;8817;48.170;8.592;2023-05-18T07:15:49;15.30;46.60
17399;DHT22;8817;48.170;8.592;2023-05-18T07:18:16;15.30;46.60
17399;DHT22;8817;48.170;8.592;2023-05-18T07:20:43;15.40;46.70
17399;DHT22;8817;48.170;8.592;2023-05-18T07:23:10;15.50;46.70
17399;DHT22;8817;48.170;8.592;2023-05-18T07:25:38;15.60;46.70
17399;DHT22;8817;48.170;8.592;2023-05-18T07:28:06;15.60;46.70
17399;DHT22;8817;48.170;8.592;2023-05-18T07:30:33;15.70;46.70
17399;DHT22;8817;48.170;8.592;2023-05-18T07:33:00;15.80;46.80
17399;DHT22;8817;48.170;8.592;2023-05-18T07:35:27;15.90;46.80
17399;DHT22;8817;48.170;8.592;2023-05-18T07:37:54;16.00;46.90
17399;DHT22;8817;48.170;8.592;2023-05-18T07:40:21;16.00;46.90
17399;DHT22;8817;48.170;8.592;2023-05-18T07:42:49;16.10;46.80
17399;DHT22;8817;48.170;8.592;2023-05-18T07:45:16;16.20;47.20
17399;DHT22;8817;48.170;8.592;2023-05-18T07:47:43;16.30;46.90
17399;DHT22;8817;48.170;8.592;2023-05-18T07:50:10;16.40;46.90
17399;DHT22;8817;48.170;8.592;2023-05-18T07:52:37;16.50;46.90
17399;DHT22;8817;48.170;8.592;2023-05-18T07:55:05;16.60;46.90
17399;DHT22;8817;48.170;8.592;2023-05-18T07:57:33;16.70;46.90
17399;DHT22;8817;48.170;8.592;2023-05-18T08:00:02;16.70;46.90
17399;DHT22;8817;48.170;8.592;2023-05-18T08:02:31;16.80;46.90
17399;DHT22;8817;48.170;8.592;2023-05-18T08:04:58;16.90;47.00
17399;DHT22;8817;48.170;8.592;2023-05-18T08:07:27;16.90;46.90
17399;DHT22;8817;48.170;8.592;2023-05-18T08:09:54;17.10;47.00
17399;DHT22;8817;48.170;8.592;2023-05-18T08:12:21;17.10;47.00
17399;DHT22;8817;48.170;8.592;2023-05-18T08:14:49;17.20;47.00
17399;DHT22;8817;48.170;8.592;2023-05-18T08:17:17;17.30;46.90
17399;DHT22;8817;48.170;8.592;2023-05-18T08:19:44;17.40;47.00
17399;DHT22;8817;48.170;8.592;2023-05-18T08:22:12;17.50;47.10
17399;DHT22;8817;48.170;8.592;2023-05-18T08:24:38;17.50;47.00
17399;DHT22;8817;48.170;8.592;2023-05-18T08:27:05;17.60;47.10
17399;DHT22;8817;48.170;8.592;2023-05-18T08:29:34;17.70;47.10
17399;DHT22;8817;48.170;8.592;2023-05-18T08:32:01;17.80;47.10
17399;DHT22;8817;48.170;8.592;2023-05-18T08:34:29;17.90;47.10
17399;DHT22;8817;48.170;8.592;2023-05-18T08:36:56;18.00;47.10
17399;DHT22;8817;48.170;8.592;2023-05-18T08:39:23;18.10;47.10
17399;DHT22;8817;48.170;8.592;2023-05-18T08:41:56;18.10;46.90
17399;DHT22;8817;48.170;8.592;2023-05-18T08:44:25;18.20;46.90
17399;DHT22;8817;48.170;8.592;2023-05-18T08:46:55;18.30;46.90
17399;DHT22;8817;48.170;8.592;2023-05-18T08:49:23;18.30;46.80
17399;DHT22;8817;48.170;8.592;2023-05-18T08:51:56;18.40;47.40
17399;DHT22;8817;48.170;8.592;2023-05-18T08:54:25;18.40;46.80
17399;DHT22;8817;48.170;8.592;2023-05-18T08:56:52;18.50;46.80
17399;DHT22;8817;48.170;8.592;2023-05-18T08:59:23;18.60;46.80
17399;DHT22;8817;48.170;8.592;2023-05-18T09:01:51;18.60;46.80
17399;DHT22;8817;48.170;8.592;2023-05-18T09:04:20;18.70;46.90
17399;DHT22;8817;48.170;8.592;2023-05-18T09:06:47;18.70;46.80
17399;DHT22;8817;48.170;8.592;2023-05-18T09:09:17;18.80;46.90
17399;DHT22;8817;48.170;8.592;2023-05-18T09:11:46;18.90;46.90
17399;DHT22;8817;48.170;8.592;2023-05-18T09:14:13;18.90;46.80
17399;DHT22;8817;48.170;8.592;2023-05-18T09:16:40;19.00;46.90
17399;DHT22;8817;48.170;8.592;2023-05-18T09:19:07;19.00;46.90
17399;DHT22;8817;48.170;8.592;2023-05-18T09:21:35;19.20;47.00
17399;DHT22;8817;48.170;8.592;2023-05-18T09:24:02;19.20;46.90
17399;DHT22;8817;48.170;8.592;2023-05-18T09:26:31;19.30;46.90
17399;DHT22;8817;48.170;8.592;2023-05-18T09:28:58;19.40;46.90
17399;DHT22;8817;48.170;8.592;2023-05-18T09:31:25;19.50;46.90
17399;DHT22;8817;48.170;8.592;2023-05-18T09:33:53;19.60;47.00
17399;DHT22;8817;48.170;8.592;2023-05-18T09:36:24;19.70;46.90
17399;DHT22;8817;48.170;8.592;2023-05-18T09:38:52;19.70;46.80
17399;DHT22;8817;48.170;8.592;2023-05-18T09:41:19;19.80;46.80
17399;DHT22;8817;48.170;8.592;2023-05-18T09:43:48;19.90;46.80
17399;DHT22;8817;48.170;8.592;2023-05-18T09:46:17;20.00;46.80
17399;DHT22;8817;48.170;8.592;2023-05-18T09:48:46;20.00;46.90
17399;DHT22;8817;48.170;8.592;2023-05-18T09:51:14;20.10;46.70
17399;DHT22;8817;48.170;8.592;2023-05-18T09:53:42;20.20;46.70
17399;DHT22;8817;48.170;8.592;2023-05-18T09:56:16;20.20;46.50
17399;DHT22;8817;48.170;8.592;2023-05-18T09:58:44;20.30;46.40
17399;DHT22;8817;48.170;8.592;2023-05-18T10:01:12;20.30;46.30
17399;DHT22;8817;48.170;8.592;2023-05-18T10:03:39;20.30;46.20
17399;DHT22;8817;48.170;8.592;2023-05-18T10:06:07;20.30;46.10
17399;DHT22;8817;48.170;8.592;2023-05-18T10:08:35;20.30;46.20
17399;DHT22;8817;48.170;8.592;2023-05-18T10:11:02;20.30;46.30
17399;DHT22;8817;48.170;8.592;2023-05-18T10:13:30;20.40;46.30
17399;DHT22;8817;48.170;8.592;2023-05-18T10:15:59;20.40;46.20
17399;DHT22;8817;48.170;8.592;2023-05-18T10:18:29;20.40;46.10
17399;DHT22;8817;48.170;8.592;2023-05-18T10:20:57;20.40;46.00
17399;DHT22;8817;48.170;8.592;2023-05-18T10:23:31;20.50;46.00
17399;DHT22;8817;48.170;8.592;2023-05-18T10:25:58;20.50;45.90
17399;DHT22;8817;48.170;8.592;2023-05-18T10:28:29;20.50;46.00
17399;DHT22;8817;48.170;8.592;2023-05-18T10:30:57;20.50;46.00
17399;DHT22;8817;48.170;8.592;2023-05-18T10:33:25;20.60;46.10
17399;DHT22;8817;48.170;8.592;2023-05-18T10:35:54;20.60;46.00
17399;DHT22;8817;48.170;8.592;2023-05-18T10:38:22;20.60;45.90
17399;DHT22;8817;48.170;8.592;2023-05-18T10:40:51;20.70;45.90
17399;DHT22;8817;48.170;8.592;2023-05-18T10:43:19;20.70;46.00
17399;DHT22;8817;48.170;8.592;2023-05-18T10:45:50;20.80;46.10
17399;DHT22;8817;48.170;8.592;2023-05-18T10:48:19;20.90;46.20
17399;DHT22;8817;48.170;8.592;2023-05-18T10:50:47;21.00;46.30
17399;DHT22;8817;48.170;8.592;2023-05-18T10:53:18;21.10;46.30
17399;DHT22;8817;48.170;8.592;2023-05-18T10:55:46;21.20;46.10
17399;DHT22;8817;48.170;8.592;2023-05-18T10:58:15;21.30;45.80
17399;DHT22;8817;48.170;8.592;2023-05-18T11:00:46;21.30;45.70
17399;DHT22;8817;48.170;8.592;2023-05-18T11:03:15;21.30;45.50
17399;DHT22;8817;48.170;8.592;2023-05-18T11:05:42;21.30;45.50
17399;DHT22;8817;48.170;8.592;2023-05-18T11:08:09;21.30;45.50
17399;DHT22;8817;48.170;8.592;2023-05-18T11:10:42;21.30;45.50
17399;DHT22;8817;48.170;8.592;2023-05-18T11:13:13;21.40;45.60
17399;DHT22;8817;48.170;8.592;2023-05-18T11:16:05;21.40;45.70
17399;DHT22;8817;48.170;8.592;2023-05-18T11:18:41;21.50;45.70
17399;DHT22;8817;48.170;8.592;2023-05-18T11:21:18;21.60;45.90
17399;DHT22;8817;48.170;8.592;2023-05-18T11:26:54;21.70;45.60
17399;DHT22;8817;48.170;8.592;2023-05-18T11:29:23;21.80;45.40
17399;DHT22;8817;48.170;8.592;2023-05-18T11:31:55;21.80;45.30
17399;DHT22;8817;48.170;8.592;2023-05-18T11:34:42;21.90;45.40
17399;DHT22;8817;48.170;8.592;2023-05-18T11:37:11;21.90;45.30
17399;DHT22;8817;48.170;8.592;2023-05-18T11:39:38;21.90;45.10
17399;DHT22;8817;48.170;8.592;2023-05-18T11:42:08;21.90;45.00
17399;DHT22;8817;48.170;8.592;2023-05-18T11:44:35;21.90;44.90
17399;DHT22;8817;48.170;8.592;2023-05-18T11:47:07;22.00;45.00
17399;DHT22;8817;48.170;8.592;2023-05-18T11:49:36;21.90;44.90
17399;DHT22;8817;48.170;8.592;2023-05-18T11:52:06;22.00;44.80
17399;DHT22;8817;48.170;8.592;2023-05-18T11:54:37;22.00;44.70
17399;DHT22;8817;48.170;8.592;2023-05-18T11:57:04;21.90;44.40
17399;DHT22;8817;48.170;8.592;2023-05-18T11:59:35;21.90;44.40
17399;DHT22;8817;48.170;8.592;2023-05-18T12:02:03;21.90;44.30
17399;DHT22;8817;48.170;8.592;2023-05-18T12:04:31;21.80;44.30
17399;DHT22;8817;48.170;8.592;2023-05-18T12:06:59;21.80;44.20
17399;DHT22;8817;48.170;8.592;2023-05-18T12:09:29;21.80;44.70
17399;DHT22;8817;48.170;8.592;2023-05-18T12:11:57;21.70;43.90
17399;DHT22;8817;48.170;8.592;2023-05-18T12:14:24;21.70;43.80
17399;DHT22;8817;48.170;8.592;2023-05-18T12:16:53;21.50;43.70
17399;DHT22;8817;48.170;8.592;2023-05-18T12:19:23;21.40;44.30
17399;DHT22;8817;48.170;8.592;2023-05-18T12:21:50;21.40;43.80
17399;DHT22;8817;48.170;8.592;2023-05-18T12:24:17;21.30;43.80
17399;DHT22;8817;48.170;8.592;2023-05-18T12:26:44;21.30;43.80
17399;DHT22;8817;48.170;8.592;2023-05-18T12:29:12;21.30;43.70
17399;DHT22;8817;48.170;8.592;2023-05-18T12:31:47;21.20;43.70
17399;DHT22;8817;48.170;8.592;2023-05-18T12:34:16;21.10;43.70
17399;DHT22;8817;48.170;8.592;2023-05-18T12:36:52;21.10;43.70
17399;DHT22;8817;48.170;8.592;2023-05-18T12:39:19;21.00;43.70
17399;DHT22;8817;48.170;8.592;2023-05-18T12:41:46;21.00;43.60
17399;DHT22;8817;48.170;8.592;2023-05-18T12:44:14;21.00;43.60
17399;DHT22;8817;48.170;8.592;2023-05-18T12:46:41;20.90;43.50
17399;DHT22;8817;48.170;8.592;2023-05-18T12:49:09;20.90;43.50
17399;DHT22;8817;48.170;8.592;2023-05-18T12:51:38;20.90;43.50
17399;DHT22;8817;48.170;8.592;2023-05-18T12:54:05;20.80;43.40
17399;DHT22;8817;48.170;8.592;2023-05-18T12:56:49;20.70;43.30
17399;DHT22;8817;48.170;8.592;2023-05-18T12:59:17;20.70;43.40
17399;DHT22;8817;48.170;8.592;2023-05-18T13:01:44;20.70;43.40
17399;DHT22;8817;48.170;8.592;2023-05-18T13:04:11;20.70;43.50
17399;DHT22;8817;48.170;8.592;2023-05-18T13:06:40;20.60;43.50
17399;DHT22;8817;48.170;8.592;2023-05-18T13:09:07;20.60;43.50
17399;DHT22;8817;48.170;8.592;2023-05-18T13:11:34;20.60;43.60
17399;DHT22;8817;48.170;8.592;2023-05-18T13:14:03;20.60;43.60
17399;DHT22;8817;48.170;8.592;2023-05-18T13:16:31;20.70;43.70
17399;DHT22;8817;48.170;8.592;2023-05-18T13:19:00;20.70;43.60
17399;DHT22;8817;48.170;8.592;2023-05-18T13:21:27;20.70;43.60
17399;DHT22;8817;48.170;8.592;2023-05-18T13:23:55;20.80;43.50
17399;DHT22;8817;48.170;8.592;2023-05-18T13:26:23;20.80;43.40
17399;DHT22;8817;48.170;8.592;2023-05-18T13:28:52;20.80;43.30
17399;DHT22;8817;48.170;8.592;2023-05-18T13:31:19;20.80;43.20
17399;DHT22;8817;48.170;8.592;2023-05-18T13:33:46;20.80;43.20
17399;DHT22;8817;48.170;8.592;2023-05-18T13:36:14;20.80;43.20
17399;DHT22;8817;48.170;8.592;2023-05-18T13:38:41;20.70;43.10
17399;DHT22;8817;48.170;8.592;2023-05-18T13:41:10;20.70;43.00
17399;DHT22;8817;48.170;8.592;2023-05-18T13:43:39;20.70;43.00
17399;DHT22;8817;48.170;8.592;2023-05-18T13:46:06;20.60;43.00
17399;DHT22;8817;48.170;8.592;2023-05-18T13:48:33;20.60;42.90
17399;DHT22;8817;48.170;8.592;2023-05-18T13:51:00;20.60;42.90
17399;DHT22;8817;48.170;8.592;2023-05-18T13:53:27;20.50;42.80
17399;DHT22;8817;48.170;8.592;2023-05-18T13:55:54;20.50;42.80
17399;DHT22;8817;48.170;8.592;2023-05-18T13:58:22;20.50;42.80
17399;DHT22;8817;48.170;8.592;2023-05-18T14:00:49;20.40;42.70
17399;DHT22;8817;48.170;8.592;2023-05-18T14:03:18;20.30;42.80
17399;DHT22;8817;48.170;8.592;2023-05-18T14:05:45;20.30;42.80
17399;DHT22;8817;48.170;8.592;2023-05-18T14:08:12;20.20;42.70
17399;DHT22;8817;48.170;8.592;2023-05-18T14:10:39;20.20;42.80
17399;DHT22;8817;48.170;8.592;2023-05-18T14:13:06;20.20;42.90
17399;DHT22;8817;48.170;8.592;2023-05-18T14:15:34;20.20;42.90
17399;DHT22;8817;48.170;8.592;2023-05-18T14:18:01;20.20;42.90
17399;DHT22;8817;48.170;8.592;2023-05-18T14:20:28;20.20;42.80
17399;DHT22;8817;48.170;8.592;2023-05-18T14:22:55;20.20;43.30
17399;DHT22;8817;48.170;8.592;2023-05-18T14:25:22;20.10;42.70
17399;DHT22;8817;48.170;8.592;2023-05-18T14:27:49;20.10;43.20
17399;DHT22;8817;48.170;8.592;2023-05-18T14:30:16;20.10;42.70
17399;DHT22;8817;48.170;8.592;2023-05-18T14:32:44;20.10;42.70
17399;DHT22;8817;48.170;8.592;2023-05-18T14:35:11;20.00;42.50
17399;DHT22;8817;48.170;8.592;2023-05-18T14:37:38;20.00;42.50
17399;DHT22;8817;48.170;8.592;2023-05-18T14:40:06;20.00;42.50
17399;DHT22;8817;48.170;8.592;2023-05-18T14:42:33;20.00;42.50
17399;DHT22;8817;48.170;8.592;2023-05-18T14:45:01;19.90;42.50
17399;DHT22;8817;48.170;8.592;2023-05-18T14:47:27;19.90;42.50
17399;DHT22;8817;48.170;8.592;2023-05-18T14:49:56;20.00;42.60
17399;DHT22;8817;48.170;8.592;2023-05-18T14:52:23;19.90;42.60
17399;DHT22;8817;48.170;8.592;2023-05-18T14:54:49;20.00;42.60
17399;DHT22;8817;48.170;8.592;2023-05-18T14:57:16;19.90;42.60
17399;DHT22;8817;48.170;8.592;2023-05-18T14:59:43;19.90;42.60
17399;DHT22;8817;48.170;8.592;2023-05-18T15:02:10;19.90;42.60
17399;DHT22;8817;48.170;8.592;2023-05-18T15:04:37;19.90;42.50
17399;DHT22;8817;48.170;8.592;2023-05-18T15:07:05;19.90;42.50
17399;DHT22;8817;48.170;8.592;2023-05-18T15:09:33;19.90;42.50
17399;DHT22;8817;48.170;8.592;2023-05-18T15:11:59;19.90;42.40
17399;DHT22;8817;48.170;8.592;2023-05-18T15:14:26;19.90;42.40
17399;DHT22;8817;48.170;8.592;2023-05-18T15:16:53;19.90;42.30
17399;DHT22;8817;48.170;8.592;2023-05-18T15:19:20;19.80;42.30
17399;DHT22;8817;48.170;8.592;2023-05-18T15:21:47;19.80;42.40
17399;DHT22;8817;48.170;8.592;2023-05-18T15:24:15;19.80;42.40
17399;DHT22;8817;48.170;8.592;2023-05-18T15:26:42;19.80;43.00
17399;DHT22;8817;48.170;8.592;2023-05-18T15:29:09;19.80;42.40
17399;DHT22;8817;48.170;8.592;2023-05-18T15:31:36;19.80;42.40
17399;DHT22;8817;48.170;8.592;2023-05-18T15:34:04;19.80;42.40
17399;DHT22;8817;48.170;8.592;2023-05-18T15:36:31;19.80;42.30
17399;DHT22;8817;48.170;8.592;2023-05-18T15:39:00;19.80;42.30
17399;DHT22;8817;48.170;8.592;2023-05-18T15:41:31;19.80;42.30
17399;DHT22;8817;48.170;8.592;2023-05-18T15:43:59;19.80;42.30
17399;DHT22;8817;48.170;8.592;2023-05-18T15:46:28;19.80;42.30
17399;DHT22;8817;48.170;8.592;2023-05-18T15:48:56;19.80;42.30
17399;DHT22;8817;48.170;8.592;2023-05-18T15:51:23;19.80;42.30
17399;DHT22;8817;48.170;8.592;2023-05-18T15:53:50;19.80;42.30